sensor_id;sensor_type;location;lat;lon;timestamp;pressure;altitude;pressure_sealevel;temperature;humidity
50430;BME280;36359;41.556;-8.418;2023-04-22T00:02:07;99412.25;;;12.31;100.00
50430;BME280;36359;41.556;-8.418;2023-04-22T00:04:33;99415.13;;;12.29;100.00
50430;BME280;36359;41.556;-8.418;2023-04-22T00:06:59;99421.38;;;12.15;100.00
50430;BME280;36359;41.556;-8.418;2023-04-22T00:09:25;99420.41;;;12.08;100.00
50430;BME280;36359;41.556;-8.418;2023-04-22T00:11:51;99413.75;;;12.10;100.00
50430;BME280;36359;41.556;-8.418;2023-04-22T00:14:17;99411.25;;;12.23;100.00
50430;BME280;36359;41.556;-8.418;2023-04-22T00:16:43;99411.75;;;12.27;100.00
50430;BME280;36359;41.556;-8.418;2023-04-22T00:19:09;99407.38;;;12.41;100.00
50430;BME280;36359;41.556;-8.418;2023-04-22T00:21:34;99412.34;;;12.37;100.00
50430;BME280;36359;41.556;-8.418;2023-04-22T00:24:00;99410.06;;;12.26;100.00
50430;BME280;36359;41.556;-8.418;2023-04-22T00:26:27;99408.91;;;12.20;100.00
50430;BME280;36359;41.556;-8.418;2023-04-22T00:28:53;99419.69;;;12.14;100.00
50430;BME280;36359;41.556;-8.418;2023-04-22T00:31:18;99422.66;;;12.27;100.00
50430;BME280;36359;41.556;-8.418;2023-04-22T00:33:44;99421.66;;;12.20;100.00
50430;BME280;36359;41.556;-8.418;2023-04-22T00:36:10;99426.16;;;12.13;100.00
50430;BME280;36359;41.556;-8.418;2023-04-22T00:38:36;99421.88;;;11.95;100.00
50430;BME280;36359;41.556;-8.418;2023-04-22T00:41:02;99420.09;;;12.02;100.00
50430;BME280;36359;41.556;-8.418;2023-04-22T00:43:27;99425.91;;;11.99;100.00
50430;BME280;36359;41.556;-8.418;2023-04-22T00:45:53;99429.59;;;12.07;100.00
50430;BME280;36359;41.556;-8.418;2023-04-22T00:48:21;99427.63;;;12.00;100.00
50430;BME280;36359;41.556;-8.418;2023-04-22T00:50:46;99426.63;;;11.93;100.00
50430;BME280;36359;41.556;-8.418;2023-04-22T00:53:12;99422.41;;;11.91;100.00
50430;BME280;36359;41.556;-8.418;2023-04-22T00:55:38;99423.06;;;11.93;100.00
50430;BME280;36359;41.556;-8.418;2023-04-22T00:58:04;99424.22;;;11.98;100.00
50430;BME280;36359;41.556;-8.418;2023-04-22T01:00:30;99424.22;;;11.98;100.00
50430;BME280;36359;41.556;-8.418;2023-04-22T01:02:56;99428.03;;;11.89;100.00
50430;BME280;36359;41.556;-8.418;2023-04-22T01:05:23;99426.50;;;11.87;100.00
50430;BME280;36359;41.556;-8.418;2023-04-22T01:07:50;99409.38;;;11.78;100.00
50430;BME280;36359;41.556;-8.418;2023-04-22T01:10:16;99415.66;;;11.78;100.00
50430;BME280;36359;41.556;-8.418;2023-04-22T01:12:43;99406.81;;;11.76;100.00
50430;BME280;36359;41.556;-8.418;2023-04-22T01:15:09;99417.31;;;11.88;100.00
50430;BME280;36359;41.556;-8.418;2023-04-22T01:17:36;99417.84;;;11.83;100.00
50430;BME280;36359;41.556;-8.418;2023-04-22T01:20:01;99426.00;;;11.83;100.00
50430;BME280;36359;41.556;-8.418;2023-04-22T01:22:35;99438.03;;;11.57;100.00
50430;BME280;36359;41.556;-8.418;2023-04-22T01:25:05;99433.03;;;11.38;100.00
50430;BME280;36359;41.556;-8.418;2023-04-22T01:27:31;99433.81;;;11.16;100.00
50430;BME280;36359;41.556;-8.418;2023-04-22T01:29:59;99451.19;;;10.90;100.00
50430;BME280;36359;41.556;-8.418;2023-04-22T01:32:25;99443.06;;;10.82;100.00
50430;BME280;36359;41.556;-8.418;2023-04-22T01:34:51;99429.09;;;11.09;100.00
50430;BME280;36359;41.556;-8.418;2023-04-22T01:37:17;99426.47;;;11.32;100.00
50430;BME280;36359;41.556;-8.418;2023-04-22T01:39:45;99431.63;;;11.50;100.00
50430;BME280;36359;41.556;-8.418;2023-04-22T01:42:11;99428.22;;;11.48;100.00
50430;BME280;36359;41.556;-8.418;2023-04-22T01:44:38;99425.31;;;11.81;100.00
50430;BME280;36359;41.556;-8.418;2023-04-22T01:47:03;99430.44;;;11.76;100.00
50430;BME280;36359;41.556;-8.418;2023-04-22T01:49:29;99427.09;;;11.74;100.00
50430;BME280;36359;41.556;-8.418;2023-04-22T01:51:57;99423.56;;;11.65;100.00
50430;BME280;36359;41.556;-8.418;2023-04-22T01:54:22;99430.19;;;11.63;100.00
50430;BME280;36359;41.556;-8.418;2023-04-22T01:56:51;99430.19;;;11.63;100.00
50430;BME280;36359;41.556;-8.418;2023-04-22T01:59:18;99441.44;;;11.59;100.00
50430;BME280;36359;41.556;-8.418;2023-04-22T02:01:44;99441.34;;;11.45;100.00
50430;BME280;36359;41.556;-8.418;2023-04-22T02:04:09;99449.59;;;11.51;100.00
50430;BME280;36359;41.556;-8.418;2023-04-22T02:06:35;99445.13;;;11.35;100.00
50430;BME280;36359;41.556;-8.418;2023-04-22T02:09:04;99451.66;;;11.49;100.00
50430;BME280;36359;41.556;-8.418;2023-04-22T02:11:30;99451.56;;;11.66;100.00
50430;BME280;36359;41.556;-8.418;2023-04-22T02:13:56;99450.31;;;11.76;100.00
50430;BME280;36359;41.556;-8.418;2023-04-22T02:16:21;99444.22;;;11.74;100.00
50430;BME280;36359;41.556;-8.418;2023-04-22T02:18:47;99436.84;;;11.91;100.00
50430;BME280;36359;41.556;-8.418;2023-04-22T02:21:13;99438.84;;;11.97;100.00
50430;BME280;36359;41.556;-8.418;2023-04-22T02:23:40;99436.25;;;12.04;100.00
50430;BME280;36359;41.556;-8.418;2023-04-22T02:26:06;99443.66;;;11.87;100.00
50430;BME280;36359;41.556;-8.418;2023-04-22T02:28:34;99435.09;;;11.98;100.00
50430;BME280;36359;41.556;-8.418;2023-04-22T02:31:00;99440.00;;;11.72;100.00
50430;BME280;36359;41.556;-8.418;2023-04-22T02:33:25;99442.34;;;12.06;100.00
50430;BME280;36359;41.556;-8.418;2023-04-22T02:35:52;99435.56;;;12.02;100.00
50430;BME280;36359;41.556;-8.418;2023-04-22T02:38:18;99452.03;;;11.77;100.00
50430;BME280;36359;41.556;-8.418;2023-04-22T02:40:44;99443.78;;;12.17;100.00
50430;BME280;36359;41.556;-8.418;2023-04-22T02:43:10;99440.66;;;12.05;100.00
50430;BME280;36359;41.556;-8.418;2023-04-22T02:45:36;99438.84;;;11.97;100.00
50430;BME280;36359;41.556;-8.418;2023-04-22T02:48:02;99443.06;;;12.00;100.00
50430;BME280;36359;41.556;-8.418;2023-04-22T02:50:28;99439.75;;;12.13;100.00
50430;BME280;36359;41.556;-8.418;2023-04-22T02:52:53;99439.88;;;12.19;100.00
50430;BME280;36359;41.556;-8.418;2023-04-22T02:55:19;99440.66;;;12.05;100.00
50430;BME280;36359;41.556;-8.418;2023-04-22T02:57:46;99444.88;;;12.08;100.00
50430;BME280;36359;41.556;-8.418;2023-04-22T03:00:12;99446.56;;;12.32;100.00
50430;BME280;36359;41.556;-8.418;2023-04-22T03:02:38;99440.16;;;12.47;100.00
50430;BME280;36359;41.556;-8.418;2023-04-22T03:05:10;99453.00;;;12.54;100.00
50430;BME280;36359;41.556;-8.418;2023-04-22T03:07:36;99459.00;;;12.49;100.00
50430;BME280;36359;41.556;-8.418;2023-04-22T03:10:02;99468.81;;;12.73;100.00
50430;BME280;36359;41.556;-8.418;2023-04-22T03:12:28;99467.91;;;12.43;100.00
50430;BME280;36359;41.556;-8.418;2023-04-22T03:14:54;99461.00;;;12.32;100.00
50430;BME280;36359;41.556;-8.418;2023-04-22T03:17:22;99459.00;;;12.26;100.00
50430;BME280;36359;41.556;-8.418;2023-04-22T03:19:48;99463.50;;;12.19;100.00
50430;BME280;36359;41.556;-8.418;2023-04-22T03:22:14;99461.97;;;11.93;100.00
50430;BME280;36359;41.556;-8.418;2023-04-22T03:24:40;99464.25;;;11.73;100.00
50430;BME280;36359;41.556;-8.418;2023-04-22T03:27:09;99463.91;;;11.76;100.00
50430;BME280;36359;41.556;-8.418;2023-04-22T03:29:34;99452.66;;;11.88;100.00
50430;BME280;36359;41.556;-8.418;2023-04-22T03:32:00;99464.81;;;12.00;100.00
50430;BME280;36359;41.556;-8.418;2023-04-22T03:34:26;99465.31;;;12.03;100.00
50430;BME280;36359;41.556;-8.418;2023-04-22T03:36:52;99466.16;;;12.04;100.00
50430;BME280;36359;41.556;-8.418;2023-04-22T03:39:18;99469.66;;;12.13;100.00
50430;BME280;36359;41.556;-8.418;2023-04-22T03:41:44;99470.97;;;12.17;100.00
50430;BME280;36359;41.556;-8.418;2023-04-22T03:44:11;99471.66;;;12.19;100.00
50430;BME280;36359;41.556;-8.418;2023-04-22T03:46:37;99470.50;;;12.36;100.00
50430;BME280;36359;41.556;-8.418;2023-04-22T03:49:29;99470.97;;;12.17;100.00
50430;BME280;36359;41.556;-8.418;2023-04-22T03:51:55;99460.41;;;12.22;100.00
50430;BME280;36359;41.556;-8.418;2023-04-22T03:54:23;99455.13;;;12.43;100.00
50430;BME280;36359;41.556;-8.418;2023-04-22T03:56:51;99457.38;;;12.40;100.00
50430;BME280;36359;41.556;-8.418;2023-04-22T03:59:19;99470.44;;;12.44;100.00
50430;BME280;36359;41.556;-8.418;2023-04-22T04:01:46;99466.22;;;12.19;100.00
50430;BME280;36359;41.556;-8.418;2023-04-22T04:04:13;99465.31;;;12.26;100.00
50430;BME280;36359;41.556;-8.418;2023-04-22T04:06:50;99478.38;;;11.69;100.00
50430;BME280;36359;41.556;-8.418;2023-04-22T04:09:16;99473.34;;;11.57;100.00
50430;BME280;36359;41.556;-8.418;2023-04-22T04:11:42;99471.97;;;11.62;100.00
50430;BME280;36359;41.556;-8.418;2023-04-22T04:14:09;99484.25;;;11.49;100.00
50430;BME280;36359;41.556;-8.418;2023-04-22T04:16:42;99483.72;;;11.93;100.00
50430;BME280;36359;41.556;-8.418;2023-04-22T04:19:13;99483.63;;;12.10;100.00
50430;BME280;36359;41.556;-8.418;2023-04-22T04:21:40;99482.34;;;12.20;100.00
50430;BME280;36359;41.556;-8.418;2023-04-22T04:24:06;99486.78;;;12.21;100.00
50430;BME280;36359;41.556;-8.418;2023-04-22T04:26:37;99487.22;;;11.71;100.00
50430;BME280;36359;41.556;-8.418;2023-04-22T04:29:13;99486.41;;;12.24;100.00
50430;BME280;36359;41.556;-8.418;2023-04-22T04:31:43;99488.50;;;12.37;100.00
50430;BME280;36359;41.556;-8.418;2023-04-22T04:34:08;99484.16;;;12.28;100.00
50430;BME280;36359;41.556;-8.418;2023-04-22T04:36:36;99490.22;;;12.15;100.00
50430;BME280;36359;41.556;-8.418;2023-04-22T04:39:22;99492.88;;;12.00;100.00
50430;BME280;36359;41.556;-8.418;2023-04-22T04:41:48;99486.47;;;12.16;100.00
50430;BME280;36359;41.556;-8.418;2023-04-22T04:44:15;99490.53;;;11.89;100.00
50430;BME280;36359;41.556;-8.418;2023-04-22T04:46:41;99501.56;;;11.56;100.00
50430;BME280;36359;41.556;-8.418;2023-04-22T04:51:40;99507.59;;;11.67;100.00
50430;BME280;36359;41.556;-8.418;2023-04-22T04:54:06;99500.47;;;12.05;100.00
50430;BME280;36359;41.556;-8.418;2023-04-22T04:56:36;99508.25;;;12.08;100.00
50430;BME280;36359;41.556;-8.418;2023-04-22T04:59:03;99507.03;;;12.42;100.00
50430;BME280;36359;41.556;-8.418;2023-04-22T05:01:28;99501.19;;;12.68;100.00
50430;BME280;36359;41.556;-8.418;2023-04-22T05:04:00;99501.56;;;12.65;100.00
50430;BME280;36359;41.556;-8.418;2023-04-22T05:06:26;99499.56;;;12.59;100.00
50430;BME280;36359;41.556;-8.418;2023-04-22T05:08:58;99504.72;;;12.54;100.00
50430;BME280;36359;41.556;-8.418;2023-04-22T05:11:23;99505.50;;;12.39;100.00
50430;BME280;36359;41.556;-8.418;2023-04-22T05:13:51;99508.09;;;12.10;100.00
50430;BME280;36359;41.556;-8.418;2023-04-22T05:16:22;99514.13;;;12.20;100.00
50430;BME280;36359;41.556;-8.418;2023-04-22T05:18:48;99518.75;;;12.42;100.00
50430;BME280;36359;41.556;-8.418;2023-04-22T05:21:14;99523.94;;;12.29;100.00
50430;BME280;36359;41.556;-8.418;2023-04-22T05:23:42;99528.00;;;12.56;100.00
50430;BME280;36359;41.556;-8.418;2023-04-22T05:26:07;99531.19;;;12.60;100.00
50430;BME280;36359;41.556;-8.418;2023-04-22T05:28:37;99527.22;;;12.47;100.00
50430;BME280;36359;41.556;-8.418;2023-04-22T05:31:03;99524.19;;;12.42;100.00
50430;BME280;36359;41.556;-8.418;2023-04-22T05:33:30;99535.97;;;12.35;100.00
50430;BME280;36359;41.556;-8.418;2023-04-22T05:35:55;99532.66;;;12.47;100.00
50430;BME280;36359;41.556;-8.418;2023-04-22T05:38:22;99535.00;;;12.50;100.00
50430;BME280;36359;41.556;-8.418;2023-04-22T05:40:48;99537.78;;;12.65;100.00
50430;BME280;36359;41.556;-8.418;2023-04-22T05:43:14;99535.59;;;12.61;100.00
50430;BME280;36359;41.556;-8.418;2023-04-22T05:45:44;99538.00;;;12.56;100.00
50430;BME280;36359;41.556;-8.418;2023-04-22T05:48:16;99543.91;;;12.44;100.00
50430;BME280;36359;41.556;-8.418;2023-04-22T05:50:52;99560.88;;;11.92;100.00
50430;BME280;36359;41.556;-8.418;2023-04-22T05:53:18;99553.03;;;11.97;100.00
50430;BME280;36359;41.556;-8.418;2023-04-22T05:55:45;99563.09;;;11.89;100.00
50430;BME280;36359;41.556;-8.418;2023-04-22T05:58:11;99569.81;;;12.32;100.00
50430;BME280;36359;41.556;-8.418;2023-04-22T06:00:45;99571.56;;;12.25;100.00
50430;BME280;36359;41.556;-8.418;2023-04-22T06:03:29;99569.00;;;12.23;100.00
50430;BME280;36359;41.556;-8.418;2023-04-22T06:05:56;99572.53;;;12.32;100.00
50430;BME280;36359;41.556;-8.418;2023-04-22T06:08:21;99569.00;;;12.23;100.00
50430;BME280;36359;41.556;-8.418;2023-04-22T06:10:49;99582.16;;;12.12;100.00
50430;BME280;36359;41.556;-8.418;2023-04-22T06:13:15;99582.16;;;12.12;100.00
50430;BME280;36359;41.556;-8.418;2023-04-22T06:15:41;99584.56;;;12.15;100.00
50430;BME280;36359;41.556;-8.418;2023-04-22T06:18:07;99594.06;;;12.11;100.00
50430;BME280;36359;41.556;-8.418;2023-04-22T06:20:33;99589.22;;;11.98;100.00
50430;BME280;36359;41.556;-8.418;2023-04-22T06:23:00;99594.34;;;12.24;100.00
50430;BME280;36359;41.556;-8.418;2023-04-22T06:25:26;99604.72;;;12.52;100.00
50430;BME280;36359;41.556;-8.418;2023-04-22T06:27:52;99604.25;;;12.71;100.00
50430;BME280;36359;41.556;-8.418;2023-04-22T06:30:20;99609.63;;;12.79;100.00
50430;BME280;36359;41.556;-8.418;2023-04-22T06:32:46;99615.25;;;12.78;100.00
50430;BME280;36359;41.556;-8.418;2023-04-22T06:35:11;99616.22;;;12.85;100.00
50430;BME280;36359;41.556;-8.418;2023-04-22T06:37:37;99622.81;;;12.90;100.00
50430;BME280;36359;41.556;-8.418;2023-04-22T06:40:06;99618.09;;;12.84;100.00
50430;BME280;36359;41.556;-8.418;2023-04-22T06:42:47;99629.41;;;12.73;100.00
50430;BME280;36359;41.556;-8.418;2023-04-22T06:45:31;99617.66;;;12.95;100.00
50430;BME280;36359;41.556;-8.418;2023-04-22T06:48:15;99632.97;;;12.96;100.00
50430;BME280;36359;41.556;-8.418;2023-04-22T06:51:01;99630.25;;;12.96;100.00
50430;BME280;36359;41.556;-8.418;2023-04-22T06:53:27;99635.84;;;13.03;100.00
50430;BME280;36359;41.556;-8.418;2023-04-22T06:55:53;99640.44;;;12.80;100.00
50430;BME280;36359;41.556;-8.418;2023-04-22T06:58:20;99645.53;;;12.52;100.00
50430;BME280;36359;41.556;-8.418;2023-04-22T07:00:47;99662.06;;;12.73;100.00
50430;BME280;36359;41.556;-8.418;2023-04-22T07:03:13;99659.25;;;12.89;100.00
50430;BME280;36359;41.556;-8.418;2023-04-22T07:05:39;99649.03;;;12.91;100.00
50430;BME280;36359;41.556;-8.418;2023-04-22T07:08:07;99658.50;;;12.95;100.00
50430;BME280;36359;41.556;-8.418;2023-04-22T07:10:32;99668.38;;;12.96;100.00
50430;BME280;36359;41.556;-8.418;2023-04-22T07:13:18;99667.72;;;12.94;100.00
50430;BME280;36359;41.556;-8.418;2023-04-22T07:15:44;99671.59;;;12.77;100.00
50430;BME280;36359;41.556;-8.418;2023-04-22T07:18:10;99668.50;;;12.80;100.00
50430;BME280;36359;41.556;-8.418;2023-04-22T07:20:36;99676.97;;;12.85;100.00
50430;BME280;36359;41.556;-8.418;2023-04-22T07:23:02;99675.22;;;12.92;100.00
50430;BME280;36359;41.556;-8.418;2023-04-22T07:25:27;99679.69;;;12.85;100.00
50430;BME280;36359;41.556;-8.418;2023-04-22T07:27:53;99677.47;;;12.89;100.00
50430;BME280;36359;41.556;-8.418;2023-04-22T07:30:19;99687.50;;;12.88;100.00
50430;BME280;36359;41.556;-8.418;2023-04-22T07:32:45;99690.16;;;12.96;100.00
50430;BME280;36359;41.556;-8.418;2023-04-22T07:35:10;99690.03;;;13.13;100.00
50430;BME280;36359;41.556;-8.418;2023-04-22T07:37:36;99678.91;;;13.00;100.00
50430;BME280;36359;41.556;-8.418;2023-04-22T07:40:02;99690.22;;;13.11;100.00
50430;BME280;36359;41.556;-8.418;2023-04-22T07:42:28;99687.22;;;13.29;100.00
50430;BME280;36359;41.556;-8.418;2023-04-22T07:44:53;99686.78;;;13.40;100.00
50430;BME280;36359;41.556;-8.418;2023-04-22T07:47:19;99696.78;;;13.63;100.00
50430;BME280;36359;41.556;-8.418;2023-04-22T07:49:45;99697.91;;;13.54;100.00
50430;BME280;36359;41.556;-8.418;2023-04-22T07:52:10;99693.56;;;13.22;100.00
50430;BME280;36359;41.556;-8.418;2023-04-22T07:54:36;99697.78;;;13.24;100.00
50430;BME280;36359;41.556;-8.418;2023-04-22T07:57:02;99697.19;;;13.37;100.00
50430;BME280;36359;41.556;-8.418;2023-04-22T07:59:28;99702.75;;;13.44;100.00
50430;BME280;36359;41.556;-8.418;2023-04-22T08:01:53;99691.63;;;13.53;100.00
50430;BME280;36359;41.556;-8.418;2023-04-22T08:04:21;99699.72;;;13.76;100.00
50430;BME280;36359;41.556;-8.418;2023-04-22T08:06:47;99698.91;;;13.91;100.00
50430;BME280;36359;41.556;-8.418;2023-04-22T08:09:13;99695.41;;;13.97;100.00
50430;BME280;36359;41.556;-8.418;2023-04-22T08:11:39;99698.72;;;13.92;100.00
50430;BME280;36359;41.556;-8.418;2023-04-22T08:14:04;99704.72;;;13.88;100.00
50430;BME280;36359;41.556;-8.418;2023-04-22T08:16:30;99709.06;;;13.97;100.00
50430;BME280;36359;41.556;-8.418;2023-04-22T08:18:56;99710.00;;;14.04;100.00
50430;BME280;36359;41.556;-8.418;2023-04-22T08:21:22;99705.22;;;14.21;100.00
50430;BME280;36359;41.556;-8.418;2023-04-22T08:23:47;99700.13;;;14.32;100.00
50430;BME280;36359;41.556;-8.418;2023-04-22T08:26:13;99705.38;;;14.49;100.00
50430;BME280;36359;41.556;-8.418;2023-04-22T08:28:40;99707.63;;;14.75;100.00
50430;BME280;36359;41.556;-8.418;2023-04-22T08:31:07;99711.88;;;14.99;100.00
50430;BME280;36359;41.556;-8.418;2023-04-22T08:33:34;99713.44;;;15.08;100.00
50430;BME280;36359;41.556;-8.418;2023-04-22T08:36:00;99716.59;;;15.27;100.00
50430;BME280;36359;41.556;-8.418;2023-04-22T08:38:28;99705.19;;;15.23;100.00
50430;BME280;36359;41.556;-8.418;2023-04-22T08:40:56;99708.69;;;15.17;100.00
50430;BME280;36359;41.556;-8.418;2023-04-22T08:43:26;99710.84;;;15.43;100.00
50430;BME280;36359;41.556;-8.418;2023-04-22T08:45:51;99713.66;;;15.71;100.00
50430;BME280;36359;41.556;-8.418;2023-04-22T08:48:20;99713.34;;;15.87;100.00
50430;BME280;36359;41.556;-8.418;2023-04-22T08:50:46;99715.09;;;15.95;100.00
50430;BME280;36359;41.556;-8.418;2023-04-22T08:53:13;99716.63;;;16.04;96.36
50430;BME280;36359;41.556;-8.418;2023-04-22T08:55:40;99714.94;;;16.03;97.62
50430;BME280;36359;41.556;-8.418;2023-04-22T08:58:09;99714.44;;;15.93;100.00
50430;BME280;36359;41.556;-8.418;2023-04-22T09:00:37;99725.59;;;15.92;100.00
50430;BME280;36359;41.556;-8.418;2023-04-22T09:03:05;99724.44;;;16.07;95.79
50430;BME280;36359;41.556;-8.418;2023-04-22T09:05:36;99719.50;;;15.96;100.00
50430;BME280;36359;41.556;-8.418;2023-04-22T09:08:02;99725.22;;;16.01;97.80
50430;BME280;36359;41.556;-8.418;2023-04-22T09:10:29;99724.44;;;16.07;97.74
50430;BME280;36359;41.556;-8.418;2023-04-22T09:12:56;99724.75;;;16.26;95.06
50430;BME280;36359;41.556;-8.418;2023-04-22T09:15:23;99734.31;;;16.43;97.61
50430;BME280;36359;41.556;-8.418;2023-04-22T09:17:52;99734.16;;;16.51;97.22
50430;BME280;36359;41.556;-8.418;2023-04-22T09:20:17;99744.53;;;16.63;91.11
50430;BME280;36359;41.556;-8.418;2023-04-22T09:22:46;99742.84;;;16.62;96.57
50430;BME280;36359;41.556;-8.418;2023-04-22T09:25:16;99734.16;;;16.51;91.13
50430;BME280;36359;41.556;-8.418;2023-04-22T09:27:47;99745.13;;;16.51;92.83
50430;BME280;36359;41.556;-8.418;2023-04-22T09:30:13;99747.28;;;16.63;89.42
50430;BME280;36359;41.556;-8.418;2023-04-22T09:32:39;99751.81;;;16.77;90.35
50430;BME280;36359;41.556;-8.418;2023-04-22T09:35:05;99755.41;;;16.49;91.93
50430;BME280;36359;41.556;-8.418;2023-04-22T09:37:31;99754.41;;;16.57;89.17
50430;BME280;36359;41.556;-8.418;2023-04-22T09:39:57;99760.34;;;16.61;87.46
50430;BME280;36359;41.556;-8.418;2023-04-22T09:42:23;99754.69;;;16.69;87.11
50430;BME280;36359;41.556;-8.418;2023-04-22T09:44:50;99752.91;;;16.48;94.09
50430;BME280;36359;41.556;-8.418;2023-04-22T09:47:19;99747.78;;;16.38;93.98
50430;BME280;36359;41.556;-8.418;2023-04-22T09:49:47;99751.56;;;16.37;97.07
50430;BME280;36359;41.556;-8.418;2023-04-22T09:52:21;99757.88;;;16.38;100.00
50430;BME280;36359;41.556;-8.418;2023-04-22T09:54:50;99756.75;;;16.60;92.29
50430;BME280;36359;41.556;-8.418;2023-04-22T09:57:16;99754.19;;;17.00;91.50
50430;BME280;36359;41.556;-8.418;2023-04-22T09:59:42;99747.88;;;16.99;91.77
50430;BME280;36359;41.556;-8.418;2023-04-22T10:02:08;99755.09;;;17.14;88.66
50430;BME280;36359;41.556;-8.418;2023-04-22T10:04:34;99745.50;;;16.83;88.78
50430;BME280;36359;41.556;-8.418;2023-04-22T10:07:00;99749.28;;;16.82;87.26
50430;BME280;36359;41.556;-8.418;2023-04-22T10:09:27;99749.13;;;16.97;86.60
50430;BME280;36359;41.556;-8.418;2023-04-22T10:11:54;99760.78;;;17.12;88.28
50430;BME280;36359;41.556;-8.418;2023-04-22T10:14:23;99750.06;;;17.24;83.18
50430;BME280;36359;41.556;-8.418;2023-04-22T10:16:51;99752.41;;;17.27;84.59
50430;BME280;36359;41.556;-8.418;2023-04-22T10:19:20;99759.72;;;17.13;87.46
50430;BME280;36359;41.556;-8.418;2023-04-22T10:21:49;99766.13;;;16.79;91.99
50430;BME280;36359;41.556;-8.418;2023-04-22T10:24:17;99776.69;;;16.82;88.19
50430;BME280;36359;41.556;-8.418;2023-04-22T10:26:57;99770.59;;;16.87;94.15
50430;BME280;36359;41.556;-8.418;2023-04-22T10:29:25;99770.88;;;17.05;85.92
50430;BME280;36359;41.556;-8.418;2023-04-22T10:32:37;99773.44;;;17.20;89.86
50430;BME280;36359;41.556;-8.418;2023-04-22T10:34:48;99771.19;;;17.43;82.88
50430;BME280;36359;41.556;-8.418;2023-04-22T10:37:17;99773.31;;;17.55;82.19
50430;BME280;36359;41.556;-8.418;2023-04-22T10:40:07;99771.00;;;17.58;79.50
50430;BME280;36359;41.556;-8.418;2023-04-22T10:42:33;99763.84;;;17.64;78.41
50430;BME280;36359;41.556;-8.418;2023-04-22T10:45:01;99774.19;;;17.62;78.50
50430;BME280;36359;41.556;-8.418;2023-04-22T10:47:31;99783.88;;;17.64;78.13
50430;BME280;36359;41.556;-8.418;2023-04-22T10:50:23;99776.91;;;17.55;77.15
50430;BME280;36359;41.556;-8.418;2023-04-22T10:55:18;99785.41;;;17.93;76.18
50430;BME280;36359;41.556;-8.418;2023-04-22T10:57:46;99783.50;;;17.94;74.09
50430;BME280;36359;41.556;-8.418;2023-04-22T11:03:26;99787.75;;;17.83;76.29
50430;BME280;36359;41.556;-8.418;2023-04-22T11:06:12;99780.06;;;17.59;77.09
50430;BME280;36359;41.556;-8.418;2023-04-22T11:08:43;99790.19;;;17.45;79.14
50430;BME280;36359;41.556;-8.418;2023-04-22T11:11:10;99791.22;;;17.37;79.67
50430;BME280;36359;41.556;-8.418;2023-04-22T11:13:40;99788.72;;;17.56;77.73
50430;BME280;36359;41.556;-8.418;2023-04-22T11:16:07;99796.13;;;17.62;78.08
50430;BME280;36359;41.556;-8.418;2023-04-22T11:18:33;99794.00;;;17.57;77.35
50430;BME280;36359;41.556;-8.418;2023-04-22T11:21:05;99796.75;;;17.51;77.82
50430;BME280;36359;41.556;-8.418;2023-04-22T11:23:33;99789.81;;;17.75;77.00
50430;BME280;36359;41.556;-8.418;2023-04-22T11:26:03;99783.31;;;17.96;76.77
50430;BME280;36359;41.556;-8.418;2023-04-22T11:28:29;99790.88;;;18.20;74.57
50430;BME280;36359;41.556;-8.418;2023-04-22T11:31:03;99785.59;;;18.25;74.62
50430;BME280;36359;41.556;-8.418;2023-04-22T11:33:31;99788.34;;;18.25;73.95
50430;BME280;36359;41.556;-8.418;2023-04-22T11:35:56;99787.53;;;17.91;73.66
50430;BME280;36359;41.556;-8.418;2023-04-22T11:38:22;99795.13;;;18.03;74.77
50430;BME280;36359;41.556;-8.418;2023-04-22T11:40:48;99796.81;;;18.30;74.30
50430;BME280;36359;41.556;-8.418;2023-04-22T11:43:14;99803.09;;;18.44;67.60
50430;BME280;36359;41.556;-8.418;2023-04-22T11:45:40;99797.19;;;18.47;69.31
50430;BME280;36359;41.556;-8.418;2023-04-22T11:48:07;99803.28;;;18.56;68.13
50430;BME280;36359;41.556;-8.418;2023-04-22T11:50:39;99807.69;;;18.70;69.16
50430;BME280;36359;41.556;-8.418;2023-04-22T11:53:20;99802.41;;;18.89;68.80
50430;BME280;36359;41.556;-8.418;2023-04-22T11:55:50;99798.78;;;18.88;66.67
50430;BME280;36359;41.556;-8.418;2023-04-22T11:58:24;99806.75;;;19.10;65.69
50430;BME280;36359;41.556;-8.418;2023-04-22T12:00:52;99811.41;;;19.09;65.60
50430;BME280;36359;41.556;-8.418;2023-04-22T12:03:19;99808.19;;;19.19;66.79
50430;BME280;36359;41.556;-8.418;2023-04-22T12:06:01;99817.16;;;19.46;65.32
50430;BME280;36359;41.556;-8.418;2023-04-22T12:08:39;99813.63;;;19.32;65.34
50430;BME280;36359;41.556;-8.418;2023-04-22T12:11:08;99810.47;;;19.28;64.09
50430;BME280;36359;41.556;-8.418;2023-04-22T12:16:11;99807.13;;;19.58;62.25
50430;BME280;36359;41.556;-8.418;2023-04-22T12:18:39;99817.72;;;19.55;63.71
50430;BME280;36359;41.556;-8.418;2023-04-22T12:23:47;99823.41;;;19.66;61.49
50430;BME280;36359;41.556;-8.418;2023-04-22T12:26:15;99818.31;;;19.63;59.82
50430;BME280;36359;41.556;-8.418;2023-04-22T12:28:42;99816.63;;;19.62;62.86
50430;BME280;36359;41.556;-8.418;2023-04-22T12:31:09;99813.19;;;19.73;61.09
50430;BME280;36359;41.556;-8.418;2023-04-22T12:33:36;99823.47;;;19.46;60.83
50430;BME280;36359;41.556;-8.418;2023-04-22T12:36:02;99834.09;;;19.43;63.36
50430;BME280;36359;41.556;-8.418;2023-04-22T12:38:28;99831.53;;;19.48;63.50
50430;BME280;36359;41.556;-8.418;2023-04-22T12:40:54;99834.19;;;19.23;63.44
50430;BME280;36359;41.556;-8.418;2023-04-22T12:43:20;99837.09;;;19.41;62.74
50430;BME280;36359;41.556;-8.418;2023-04-22T12:45:46;99837.03;;;19.48;61.90
50430;BME280;36359;41.556;-8.418;2023-04-22T12:48:11;99832.50;;;19.60;60.64
50430;BME280;36359;41.556;-8.418;2023-04-22T12:50:37;99835.66;;;19.70;59.13
50430;BME280;36359;41.556;-8.418;2023-04-22T12:53:03;99845.53;;;19.40;58.99
50430;BME280;36359;41.556;-8.418;2023-04-22T12:55:29;99845.06;;;19.49;59.91
50430;BME280;36359;41.556;-8.418;2023-04-22T12:57:55;99844.16;;;19.62;60.66
50430;BME280;36359;41.556;-8.418;2023-04-22T13:00:22;99840.03;;;19.40;59.61